Stillwater, Oklahoma
Current Conditions -  °F | °C
As of 3:53 PM on Thursday 23 Oct 2014 (Local Time) from KSWO Reporting Station
Few Clouds Few Clouds  
Wind Chill: 79°   Ceiling: Unl
Heat Index: 80°   Visibility: 10mi
Dew Point: 59°   Wind: 5mph
Humidity: 50%   Direction: 180°S
Pressure: 30.05"   Gusts: NA
Location:  36.12°N, 97.06°W
Report Text: KSWO 232053Z 18004KT 10SM FEW037 FEW049 26/15 A3005 RMK AO2 SLP164 T02610150 56024
Loading
Personal Weather Stations






























Interactive Weather Map New forecast layout! Learn more

10-Day Weather Forecast

Advertisements
Track Severe Weather on mobile